createdAt,value
2019-05-16T00:00:25.411Z,7.72
2019-05-16T00:01:25.404Z,7.50
2019-05-16T00:02:25.419Z,7.67
2019-05-16T00:03:27.841Z,7.53
2019-05-16T00:04:25.364Z,7.60
2019-05-16T00:05:25.359Z,7.57
2019-05-16T00:06:25.345Z,7.68
2019-05-16T00:07:25.352Z,7.67
2019-05-16T00:08:25.329Z,7.63
2019-05-16T00:09:25.319Z,7.60
2019-05-16T00:10:25.305Z,7.49
2019-05-16T00:11:25.291Z,7.42
2019-05-16T00:12:25.304Z,7.37
2019-05-16T00:13:25.268Z,7.45
2019-05-16T00:14:25.260Z,7.35
2019-05-16T00:15:25.251Z,7.45
2019-05-16T00:16:25.280Z,7.40
2019-05-16T00:17:25.284Z,7.31
2019-05-16T00:18:25.217Z,7.31
2019-05-16T00:19:25.214Z,7.28
2019-05-16T00:20:25.202Z,7.34
2019-05-16T00:21:25.190Z,7.25
2019-05-16T00:22:25.194Z,7.27
2019-05-16T00:23:25.164Z,7.20
2019-05-16T00:24:25.151Z,7.16
2019-05-16T00:25:25.151Z,7.23
2019-05-16T00:26:25.132Z,7.23
2019-05-16T00:27:25.145Z,7.25
2019-05-16T00:28:25.117Z,7.16
2019-05-16T00:29:25.105Z,7.20
2019-05-16T00:30:25.095Z,7.16
2019-05-16T00:31:25.078Z,7.10
2019-05-16T00:32:25.065Z,7.03
2019-05-16T00:33:25.078Z,6.95
2019-05-16T00:34:25.050Z,7.06
2019-05-16T00:35:25.054Z,7.05
2019-05-16T00:36:25.023Z,7.10
2019-05-16T00:37:25.012Z,7.06
2019-05-16T00:38:25.022Z,7.05
2019-05-16T00:39:24.997Z,6.97
2019-05-16T00:40:24.989Z,6.92
2019-05-16T00:41:24.972Z,7.05
2019-05-16T00:42:24.959Z,6.80
2019-05-16T00:43:24.986Z,6.84
2019-05-16T00:44:24.943Z,6.87
2019-05-16T00:45:24.933Z,6.87
2019-05-16T00:46:24.927Z,6.87
2019-05-16T00:47:24.905Z,6.91
2019-05-16T00:48:24.930Z,6.77
2019-05-16T00:49:24.889Z,6.80
2019-05-16T00:50:24.879Z,6.87
2019-05-16T00:51:24.870Z,6.87
2019-05-16T00:52:24.855Z,6.77
2019-05-16T00:53:24.865Z,6.81
2019-05-16T00:54:24.835Z,6.67
2019-05-16T00:55:24.830Z,6.84
2019-05-16T00:56:24.817Z,6.84
2019-05-16T00:57:24.805Z,6.87
2019-05-16T00:58:24.972Z,6.80
2019-05-16T00:59:24.779Z,6.79
2019-05-16T01:00:24.770Z,6.79
2019-05-16T01:01:24.765Z,6.79
2019-05-16T01:02:24.753Z,6.92
2019-05-16T01:03:24.757Z,6.84
2019-05-16T01:04:24.738Z,6.92
2019-05-16T01:05:24.718Z,6.91
2019-05-16T01:06:24.713Z,6.79
2019-05-16T01:07:24.705Z,6.91
2019-05-16T01:08:24.728Z,6.97
2019-05-16T01:09:24.676Z,6.80
2019-05-16T01:10:24.668Z,6.92
2019-05-16T01:11:24.651Z,6.97
2019-05-16T01:12:24.640Z,6.99
2019-05-16T01:13:24.645Z,6.98
2019-05-16T01:14:24.617Z,7.06
2019-05-16T01:15:24.613Z,7.03
2019-05-16T01:16:25.186Z,7.07
2019-05-16T01:17:24.589Z,7.05
2019-05-16T01:18:24.605Z,7.06
2019-05-16T01:19:24.568Z,7.05
2019-05-16T01:20:24.555Z,7.17
2019-05-16T01:21:24.553Z,7.17
2019-05-16T01:22:24.540Z,7.13
2019-05-16T01:23:24.536Z,7.15
2019-05-16T01:24:24.513Z,7.15
2019-05-16T01:25:24.506Z,7.15
2019-05-16T01:26:24.491Z,7.25
2019-05-16T01:27:24.487Z,7.16
2019-05-16T01:28:24.489Z,7.16
2019-05-16T01:29:24.462Z,7.17
2019-05-16T01:30:24.456Z,7.20
2019-05-16T01:31:24.435Z,7.15
2019-05-16T01:32:24.429Z,7.16
2019-05-16T01:33:24.441Z,7.16
2019-05-16T01:34:24.406Z,7.12
2019-05-16T01:35:24.402Z,7.09
2019-05-16T01:36:36.491Z,7.06
2019-05-16T01:37:25.373Z,7.10
2019-05-16T01:38:24.376Z,7.10
2019-05-16T01:39:24.358Z,7.24
2019-05-16T01:40:24.345Z,7.16
2019-05-16T01:41:24.335Z,7.21
2019-05-16T01:42:24.333Z,7.16
2019-05-16T01:43:24.329Z,7.28
2019-05-16T01:44:24.309Z,7.16
2019-05-16T01:45:24.290Z,7.17
2019-05-16T01:46:24.283Z,7.15
2019-05-16T01:47:24.273Z,7.23
2019-05-16T01:48:24.279Z,7.24
2019-05-16T01:49:24.254Z,7.23
2019-05-16T01:50:24.243Z,7.24
2019-05-16T01:51:24.222Z,7.25
2019-05-16T01:52:24.213Z,7.28
2019-05-16T01:53:24.227Z,7.27
2019-05-16T01:54:24.225Z,7.21
2019-05-16T01:55:24.179Z,7.15
2019-05-16T01:56:24.174Z,7.21
2019-05-16T01:57:24.165Z,7.25
2019-05-16T01:58:24.166Z,7.23
2019-05-16T01:59:24.144Z,7.30
2019-05-16T02:00:25.857Z,7.27
2019-05-16T02:01:25.120Z,7.24
2019-05-16T02:02:24.112Z,7.27
2019-05-16T02:03:24.113Z,7.35
2019-05-16T02:04:24.086Z,7.32
2019-05-16T02:05:24.075Z,7.45
2019-05-16T02:06:24.062Z,7.37
2019-05-16T02:07:24.089Z,7.40
2019-05-16T02:08:24.048Z,7.43
2019-05-16T02:09:24.047Z,7.40
2019-05-16T02:10:24.019Z,7.46
2019-05-16T02:11:24.019Z,7.55
2019-05-16T02:12:24.003Z,7.52
2019-05-16T02:13:23.999Z,7.45
2019-05-16T02:14:24.002Z,7.48
2019-05-16T02:15:23.965Z,7.50
2019-05-16T02:16:24.222Z,7.50
2019-05-16T02:17:23.952Z,7.67
2019-05-16T02:18:23.933Z,7.64
2019-05-16T02:19:23.950Z,7.75
2019-05-16T02:20:23.917Z,7.83
2019-05-16T02:21:23.906Z,7.85
2019-05-16T02:22:23.901Z,7.80
2019-05-16T02:23:23.879Z,7.86
2019-05-16T02:24:23.888Z,7.90
2019-05-16T02:25:23.867Z,7.95
2019-05-16T02:26:23.856Z,7.89
2019-05-16T02:27:23.838Z,7.89
2019-05-16T02:28:30.395Z,7.89
2019-05-16T02:29:24.833Z,7.98
2019-05-16T02:30:23.820Z,8.05
2019-05-16T02:31:23.814Z,8.02
2019-05-16T02:32:23.803Z,8.04
2019-05-16T02:33:23.786Z,8.12
2019-05-16T02:34:23.787Z,8.15
2019-05-16T02:35:23.756Z,8.12
2019-05-16T02:36:23.747Z,8.19
2019-05-16T02:37:29.169Z,8.28
2019-05-16T02:38:24.752Z,8.18
2019-05-16T02:39:23.736Z,8.26
2019-05-16T02:40:23.733Z,8.29
2019-05-16T02:41:23.692Z,8.25
2019-05-16T02:42:23.685Z,8.19
2019-05-16T02:43:26.058Z,8.23
2019-05-16T02:44:24.548Z,8.25
2019-05-16T02:45:24.617Z,8.19
2019-05-16T02:46:23.647Z,8.28
2019-05-16T02:47:23.626Z,8.37
2019-05-16T02:48:23.619Z,8.34
2019-05-16T02:49:23.605Z,8.34
2019-05-16T02:50:23.609Z,8.29
2019-05-16T02:51:23.594Z,8.30
2019-05-16T02:52:23.579Z,8.29
2019-05-16T02:53:23.572Z,8.33
2019-05-16T02:54:23.560Z,8.29
2019-05-16T02:55:23.554Z,8.40
2019-05-16T02:56:23.530Z,8.37
2019-05-16T02:57:23.521Z,8.47
2019-05-16T02:58:23.849Z,8.40
2019-05-16T02:59:23.495Z,8.33
2019-05-16T03:00:23.502Z,8.36
2019-05-16T03:01:23.495Z,8.34
2019-05-16T03:02:23.464Z,8.38
2019-05-16T03:03:23.468Z,8.36
2019-05-16T03:04:23.453Z,8.30
2019-05-16T03:05:23.451Z,8.47
2019-05-16T03:06:23.433Z,8.44
2019-05-16T03:08:24.398Z,8.45
2019-05-16T03:09:23.389Z,8.53
2019-05-16T03:10:23.392Z,8.41
2019-05-16T03:11:23.373Z,8.43
2019-05-16T03:12:23.360Z,8.30
2019-05-16T03:13:23.345Z,8.43
2019-05-16T03:14:23.333Z,8.43
2019-05-16T03:15:23.347Z,8.50
2019-05-16T03:16:23.326Z,8.47
2019-05-16T03:17:23.314Z,8.48
2019-05-16T03:18:23.298Z,8.50
2019-05-16T03:19:23.279Z,8.52
2019-05-16T03:20:23.286Z,8.47
2019-05-16T03:21:23.261Z,8.48
2019-05-16T03:22:23.251Z,8.45
2019-05-16T03:23:23.249Z,8.44
2019-05-16T03:24:23.233Z,8.47
2019-05-16T03:25:23.235Z,8.37
2019-05-16T03:26:23.238Z,8.44
2019-05-16T03:27:23.193Z,8.47
2019-05-16T03:28:23.185Z,8.41
2019-05-16T03:29:23.180Z,8.50
2019-05-16T03:30:24.145Z,8.50
2019-05-16T03:31:24.867Z,8.47
2019-05-16T03:32:24.579Z,8.52
2019-05-16T03:33:30.636Z,8.53
2019-05-16T03:34:25.961Z,8.48
2019-05-16T03:35:25.047Z,8.48
2019-05-16T03:36:25.234Z,8.52
2019-05-16T03:37:25.092Z,8.41
2019-05-16T03:38:23.081Z,8.52
2019-05-16T03:39:23.075Z,8.44
2019-05-16T03:40:23.071Z,8.43
2019-05-16T03:41:23.048Z,8.45
2019-05-16T03:42:23.030Z,8.43
2019-05-16T03:43:23.029Z,8.43
2019-05-16T03:44:23.017Z,8.50
2019-05-16T03:45:23.026Z,8.44
2019-05-16T03:46:22.996Z,8.44
2019-05-16T03:47:22.988Z,8.36
2019-05-16T03:48:22.974Z,8.41
2019-05-16T03:49:22.967Z,8.36
2019-05-16T03:50:22.964Z,8.37
2019-05-16T03:51:22.949Z,8.38
2019-05-16T03:52:22.930Z,8.29
2019-05-16T03:53:22.914Z,8.36
2019-05-16T03:54:22.902Z,8.33
2019-05-16T03:55:22.906Z,8.38
2019-05-16T03:56:22.900Z,8.44
2019-05-16T03:57:22.880Z,8.37
2019-05-16T03:58:22.914Z,8.36
2019-05-16T03:59:22.849Z,8.47
2019-05-16T04:00:22.840Z,8.48
2019-05-16T04:01:22.850Z,8.30
2019-05-16T04:02:22.830Z,8.47
2019-05-16T04:03:22.806Z,8.44
2019-05-16T04:04:22.799Z,8.41
2019-05-16T04:05:22.796Z,8.48
2019-05-16T04:06:22.789Z,8.50
2019-05-16T04:07:22.771Z,8.43
2019-05-16T04:08:25.072Z,8.45
2019-05-16T04:09:22.750Z,8.44
2019-05-16T04:10:22.758Z,8.47
2019-05-16T04:11:23.572Z,8.44
2019-05-16T04:12:22.740Z,8.50
2019-05-16T04:13:22.709Z,8.52
2019-05-16T04:14:22.698Z,8.48
2019-05-16T04:15:22.684Z,8.55
2019-05-16T04:16:22.704Z,8.63
2019-05-16T04:17:22.657Z,8.66
2019-05-16T04:18:22.827Z,8.71
2019-05-16T04:19:22.640Z,8.68
2019-05-16T04:20:22.629Z,8.73
2019-05-16T04:21:22.636Z,8.71
2019-05-16T04:22:22.607Z,8.76
2019-05-16T04:23:22.618Z,8.79
2019-05-16T04:24:22.581Z,8.83
2019-05-16T04:25:22.579Z,8.87
2019-05-16T04:26:22.571Z,8.92
2019-05-16T04:27:22.554Z,8.92
2019-05-16T04:28:22.805Z,9.02
2019-05-16T04:29:22.531Z,9.08
2019-05-16T04:30:22.521Z,9.04
2019-05-16T04:31:22.520Z,9.15
2019-05-16T04:32:22.495Z,9.26
2019-05-16T04:33:22.792Z,9.26
2019-05-16T04:34:22.506Z,9.31
2019-05-16T04:35:22.461Z,9.42
2019-05-16T04:36:22.473Z,9.40
2019-05-16T04:37:26.107Z,9.48
2019-05-16T04:38:35.108Z,9.50
2019-05-16T04:39:23.424Z,9.40
2019-05-16T04:40:22.412Z,9.50
2019-05-16T04:41:22.402Z,9.47
2019-05-16T04:42:22.421Z,9.38
2019-05-16T04:43:22.816Z,9.38
2019-05-16T04:44:22.368Z,9.39
2019-05-16T04:45:22.360Z,9.32
2019-05-16T04:46:22.344Z,9.29
2019-05-16T04:47:22.358Z,9.14
2019-05-16T04:48:23.144Z,9.23
2019-05-16T04:49:22.315Z,9.13
2019-05-16T04:50:22.303Z,9.26
2019-05-16T04:51:22.307Z,9.17
2019-05-16T04:52:22.297Z,9.21
2019-05-16T04:53:22.324Z,9.32
2019-05-16T04:54:22.265Z,9.38
2019-05-16T04:55:22.252Z,9.61
2019-05-16T04:56:22.243Z,9.54
2019-05-16T04:57:22.257Z,9.76
2019-05-16T04:58:23.587Z,9.84
2019-05-16T04:59:22.208Z,9.96
2019-05-16T05:00:22.200Z,10.11
2019-05-16T05:01:22.199Z,10.18
2019-05-16T05:02:22.220Z,10.32
2019-05-16T05:03:22.212Z,10.48
2019-05-16T05:04:22.151Z,10.70
2019-05-16T05:05:22.154Z,11.06
2019-05-16T05:06:22.132Z,11.40
2019-05-16T05:07:22.154Z,11.75
2019-05-16T05:08:22.639Z,12.07
2019-05-16T05:09:22.097Z,12.27
2019-05-16T05:10:22.086Z,12.42
2019-05-16T05:11:22.078Z,12.68
2019-05-16T05:12:22.092Z,13.26
2019-05-16T05:13:22.739Z,13.59
2019-05-16T05:14:22.045Z,14.09
2019-05-16T05:15:22.033Z,14.37
2019-05-16T05:16:22.019Z,14.60
2019-05-16T05:17:22.023Z,14.83
2019-05-16T05:18:22.001Z,15.10
2019-05-16T05:19:22.000Z,15.28
2019-05-16T05:20:21.986Z,15.54
2019-05-16T05:21:21.964Z,15.64
2019-05-16T05:22:21.978Z,15.86
2019-05-16T05:23:21.950Z,16.00
2019-05-16T05:24:21.941Z,16.30
2019-05-16T05:25:21.928Z,16.30
2019-05-16T05:26:21.915Z,16.15
2019-05-16T05:27:21.917Z,15.97
2019-05-16T05:28:21.887Z,15.86
2019-05-16T05:29:21.878Z,15.93
2019-05-16T05:30:21.890Z,16.25
2019-05-16T05:31:24.757Z,16.35
2019-05-16T05:32:21.867Z,16.07
2019-05-16T05:33:21.841Z,15.59
2019-05-16T05:34:21.828Z,15.78
2019-05-16T05:35:21.818Z,15.92
2019-05-16T05:36:21.804Z,16.08
2019-05-16T05:37:21.815Z,16.49
2019-05-16T05:38:21.901Z,16.41
2019-05-16T05:39:21.772Z,15.74
2019-05-16T05:40:21.760Z,15.59
2019-05-16T05:41:21.748Z,15.50
2019-05-16T05:42:21.755Z,15.41
2019-05-16T05:43:22.039Z,15.59
2019-05-16T05:44:21.724Z,15.14
2019-05-16T05:45:21.712Z,15.01
2019-05-16T05:46:21.699Z,14.95
2019-05-16T05:47:21.708Z,14.83
2019-05-16T05:48:22.146Z,14.77
2019-05-16T05:49:21.662Z,14.69
2019-05-16T05:50:21.653Z,14.80
2019-05-16T05:51:21.645Z,15.11
2019-05-16T05:52:21.642Z,15.29
2019-05-16T05:53:21.654Z,15.67
2019-05-16T05:54:21.610Z,15.97
2019-05-16T05:55:21.603Z,16.08
2019-05-16T05:56:21.593Z,15.84
2019-05-16T05:57:21.581Z,15.53
2019-05-16T05:58:21.743Z,15.29
2019-05-16T05:59:21.557Z,15.34
2019-05-16T06:00:21.543Z,15.49
2019-05-16T06:01:21.536Z,15.39
2019-05-16T06:02:21.523Z,15.14
2019-05-16T06:03:22.658Z,14.88
2019-05-16T06:04:21.510Z,14.89
2019-05-16T06:05:21.497Z,14.27
2019-05-16T06:06:21.506Z,14.18
2019-05-16T06:07:21.469Z,13.99
2019-05-16T06:08:21.472Z,13.55
2019-05-16T06:09:28.406Z,13.57
2019-05-16T06:10:22.438Z,13.29
2019-05-16T06:11:21.453Z,13.36
2019-05-16T06:12:21.507Z,13.39
2019-05-16T06:13:21.416Z,13.59
2019-05-16T06:14:21.455Z,13.66
2019-05-16T06:15:21.387Z,13.95
2019-05-16T06:16:21.393Z,14.54
2019-05-16T06:17:21.371Z,14.47
2019-05-16T06:18:21.367Z,14.09
2019-05-16T06:19:21.339Z,13.81
2019-05-16T06:20:21.327Z,13.55
2019-05-16T06:21:21.315Z,13.12
2019-05-16T06:22:21.313Z,13.25
2019-05-16T06:23:21.328Z,13.38
2019-05-16T06:24:21.293Z,13.59
2019-05-16T06:25:22.933Z,14.24
2019-05-16T06:26:21.264Z,14.72
2019-05-16T06:27:21.254Z,15.44
2019-05-16T06:28:21.428Z,15.78
2019-05-16T06:29:21.257Z,14.81
2019-05-16T06:30:21.578Z,14.69
2019-05-16T06:31:22.207Z,14.80
2019-05-16T06:32:21.197Z,14.75
2019-05-16T06:33:21.205Z,14.83
2019-05-16T06:34:21.180Z,14.50
2019-05-16T06:35:23.959Z,14.28
2019-05-16T06:36:21.160Z,14.03
2019-05-16T06:37:21.149Z,13.82
2019-05-16T06:38:21.394Z,13.49
2019-05-16T06:39:21.139Z,13.54
2019-05-16T06:40:21.109Z,13.60
2019-05-16T06:41:21.109Z,13.60
2019-05-16T06:42:21.099Z,13.44
2019-05-16T06:43:21.099Z,13.26
2019-05-16T06:44:21.067Z,12.89
2019-05-16T06:45:21.056Z,12.71
2019-05-16T06:46:21.047Z,12.71
2019-05-16T06:47:23.120Z,12.92
2019-05-16T06:48:21.612Z,13.14
2019-05-16T06:49:21.038Z,13.26
2019-05-16T06:50:21.131Z,13.33
2019-05-16T06:51:20.992Z,12.96
2019-05-16T06:52:20.999Z,13.07
2019-05-16T06:53:21.319Z,13.36
2019-05-16T06:54:20.976Z,13.59
2019-05-16T06:55:20.950Z,13.77
2019-05-16T06:56:20.943Z,13.82
2019-05-16T06:57:20.926Z,13.91
2019-05-16T06:58:22.226Z,13.69
2019-05-16T06:59:20.924Z,13.54
2019-05-16T07:00:21.234Z,13.46
2019-05-16T07:01:21.108Z,12.95
2019-05-16T07:02:30.195Z,12.68
2019-05-16T07:03:21.863Z,12.46
2019-05-16T07:04:20.903Z,12.38
2019-05-16T07:05:21.115Z,12.39
2019-05-16T07:06:45.548Z,12.57
2019-05-16T07:07:21.820Z,12.60
2019-05-16T07:08:21.114Z,12.68
2019-05-16T07:09:20.818Z,12.53
2019-05-16T07:10:20.788Z,12.70
2019-05-16T07:11:20.786Z,12.56
2019-05-16T07:12:20.764Z,12.54
2019-05-16T07:13:20.764Z,12.29
2019-05-16T07:14:22.909Z,12.24
2019-05-16T07:15:20.866Z,12.28
2019-05-16T07:16:20.764Z,12.34
2019-05-16T07:17:20.715Z,12.45
2019-05-16T07:18:21.372Z,12.41
2019-05-16T07:19:20.883Z,12.38
2019-05-16T07:20:21.215Z,12.35
2019-05-16T07:21:20.672Z,12.02
2019-05-16T07:22:20.710Z,11.94
2019-05-16T07:23:21.283Z,11.72
2019-05-16T07:24:20.649Z,11.70
2019-05-16T07:25:21.020Z,11.80
2019-05-16T07:26:20.755Z,11.86
2019-05-16T07:27:21.902Z,11.98
2019-05-16T07:28:21.192Z,11.99
2019-05-16T07:29:20.604Z,12.27
2019-05-16T07:30:20.574Z,12.67
2019-05-16T07:31:22.559Z,13.08
2019-05-16T07:32:20.555Z,13.62
2019-05-16T07:33:21.355Z,13.82
2019-05-16T07:34:20.757Z,13.84
2019-05-16T07:35:20.638Z,14.22
2019-05-16T07:36:21.050Z,14.03
2019-05-16T07:37:20.492Z,14.24
2019-05-16T07:38:20.743Z,14.47
2019-05-16T07:39:20.483Z,14.12
2019-05-16T07:40:26.559Z,14.04
2019-05-16T07:41:21.550Z,14.02
2019-05-16T07:42:20.447Z,13.92
2019-05-16T07:43:20.790Z,14.09
2019-05-16T07:44:20.872Z,14.35
2019-05-16T07:45:20.610Z,14.35
2019-05-16T07:46:20.894Z,14.45
2019-05-16T07:47:20.467Z,13.89
2019-05-16T07:48:21.628Z,13.30
2019-05-16T07:49:20.361Z,13.44
2019-05-16T07:50:20.529Z,13.48
2019-05-16T07:51:20.624Z,13.29
2019-05-16T07:52:21.063Z,13.28
2019-05-16T07:53:21.423Z,13.08
2019-05-16T07:54:21.362Z,13.36
2019-05-16T07:55:21.094Z,13.33
2019-05-16T07:56:20.604Z,13.77
2019-05-16T07:57:22.819Z,14.17
2019-05-16T07:58:21.745Z,14.39
2019-05-16T07:59:20.502Z,14.57
2019-05-16T08:00:21.601Z,15.20
2019-05-16T08:01:20.251Z,16.46
2019-05-16T08:02:21.097Z,16.75
2019-05-16T08:03:20.247Z,16.61
2019-05-16T08:04:20.202Z,16.20
2019-05-16T08:05:21.022Z,15.76
2019-05-16T08:06:20.292Z,15.90
2019-05-16T08:07:20.317Z,15.97
2019-05-16T08:08:23.919Z,16.12
2019-05-16T08:09:21.078Z,16.28
2019-05-16T08:10:36.951Z,15.96
2019-05-16T08:11:23.675Z,15.64
2019-05-16T08:12:25.483Z,15.50
2019-05-16T08:13:21.410Z,15.29
2019-05-16T08:14:21.216Z,14.95
2019-05-16T08:15:21.247Z,14.81
2019-05-16T08:16:20.767Z,14.58
2019-05-16T08:17:21.689Z,14.75
2019-05-16T08:18:21.261Z,14.81
2019-05-16T08:19:24.521Z,14.75
2019-05-16T08:20:21.510Z,14.57
2019-05-16T08:21:20.385Z,14.17
2019-05-16T08:22:22.337Z,14.12
2019-05-16T08:23:22.348Z,13.79
2019-05-16T08:24:20.596Z,13.79
2019-05-16T08:25:20.483Z,13.67
2019-05-16T08:26:21.857Z,13.71
2019-05-16T08:27:20.814Z,13.92
2019-05-16T08:28:21.451Z,14.15
2019-05-16T08:29:22.029Z,14.12
2019-05-16T08:32:22.958Z,14.15
2019-05-16T08:33:21.898Z,14.42
2019-05-16T08:34:20.959Z,14.24
2019-05-16T08:35:21.123Z,14.33
2019-05-16T08:37:36.855Z,14.46
2019-05-16T08:38:21.769Z,14.36
2019-05-16T08:39:21.424Z,14.51
2019-05-16T08:40:21.272Z,14.52
2019-05-16T08:41:22.170Z,14.45
2019-05-16T08:42:20.762Z,14.33
2019-05-16T08:44:21.678Z,14.06
2019-05-16T08:45:21.144Z,14.04
2019-05-16T08:46:20.716Z,14.20
2019-05-16T08:47:21.270Z,14.17
2019-05-16T08:49:22.104Z,14.15
2019-05-16T08:50:11.565Z,14.35
2019-05-16T08:50:21.642Z,14.06
2019-05-16T08:51:22.353Z,13.96
2019-05-16T08:52:22.355Z,13.97
2019-05-16T08:53:21.618Z,13.84
2019-05-16T08:54:21.364Z,14.06
2019-05-16T08:55:21.728Z,14.00
2019-05-16T08:56:22.059Z,13.89
2019-05-16T08:57:27.385Z,14.10
2019-05-16T08:58:22.640Z,14.37
2019-05-16T08:59:21.438Z,14.39
2019-05-16T09:00:21.734Z,14.65
2019-05-16T09:01:21.779Z,15.09
2019-05-16T09:02:22.904Z,15.27
2019-05-16T09:03:22.232Z,15.09
2019-05-16T09:04:24.616Z,15.06
2019-05-16T09:05:22.715Z,15.89
2019-05-16T09:06:22.848Z,16.81
2019-05-16T09:07:22.594Z,16.83
2019-05-16T09:08:19.512Z,16.43
2019-05-16T09:09:36.558Z,16.81
2019-05-16T09:10:31.814Z,14.20
2019-05-16T09:10:40.777Z,14.45
2019-05-16T09:10:41.639Z,14.04
2019-05-16T09:11:39.228Z,17.34
2019-05-16T09:12:20.456Z,18.48
2019-05-16T09:13:19.461Z,17.99
2019-05-16T09:14:19.439Z,17.72
2019-05-16T09:15:19.428Z,18.33
2019-05-16T09:16:19.432Z,18.45
2019-05-16T09:17:19.401Z,18.87
2019-05-16T09:18:19.393Z,17.97
2019-05-16T09:18:38.111Z,14.06
2019-05-16T09:19:19.385Z,16.58
2019-05-16T09:20:19.400Z,16.71
2019-05-16T09:21:19.361Z,17.46
2019-05-16T09:22:19.373Z,18.02
2019-05-16T09:23:19.384Z,18.60
2019-05-16T09:24:19.334Z,18.17
2019-05-16T09:25:19.327Z,17.43
2019-05-16T09:26:19.930Z,16.86
2019-05-16T09:27:19.379Z,16.38
2019-05-16T09:28:19.284Z,15.65
2019-05-16T09:29:19.273Z,15.29
2019-05-16T09:30:19.267Z,14.64
2019-05-16T09:31:19.258Z,14.88
2019-05-16T09:32:27.073Z,15.19
2019-05-16T09:33:20.237Z,15.13
2019-05-16T09:34:19.224Z,15.28
2019-05-16T09:35:19.211Z,15.23
2019-05-16T09:36:19.198Z,15.28
2019-05-16T09:37:19.212Z,15.43
2019-05-16T09:38:23.653Z,15.31
2019-05-16T09:39:19.170Z,15.14
2019-05-16T09:40:19.155Z,14.98
2019-05-16T09:41:19.144Z,15.10
2019-05-16T09:42:19.149Z,15.07
2019-05-16T09:43:19.149Z,15.07
2019-05-16T09:44:19.118Z,14.91
2019-05-16T09:45:19.110Z,14.95
2019-05-16T09:46:19.093Z,15.49
2019-05-16T09:47:19.096Z,15.23
2019-05-16T09:48:19.217Z,15.38
2019-05-16T09:49:24.413Z,15.62
2019-05-16T09:50:20.045Z,15.64
2019-05-16T09:51:21.289Z,15.32
2019-05-16T09:52:19.044Z,15.23
2019-05-16T09:53:19.011Z,15.36
2019-05-16T09:54:19.003Z,15.75
2019-05-16T09:55:18.994Z,16.24
2019-05-16T09:56:18.990Z,16.58
2019-05-16T09:57:18.992Z,16.94
2019-05-16T09:58:18.961Z,16.49
2019-05-16T09:59:18.947Z,15.90
2019-05-16T10:00:18.937Z,15.93
2019-05-16T10:01:18.926Z,16.01
2019-05-16T10:02:18.935Z,16.83
2019-05-16T10:03:22.583Z,17.52
2019-05-16T10:04:18.904Z,18.66
2019-05-16T10:05:18.897Z,18.91
2019-05-16T10:06:19.422Z,19.16
2019-05-16T10:07:18.879Z,18.78
2019-05-16T10:08:18.847Z,18.17
2019-05-16T10:09:18.845Z,17.82
2019-05-16T10:10:18.832Z,17.71
2019-05-16T10:11:18.824Z,16.83
2019-05-16T10:12:18.880Z,16.75
2019-05-16T10:13:18.794Z,16.30
2019-05-16T10:14:18.785Z,16.42
2019-05-16T10:15:18.776Z,16.58
2019-05-16T10:16:18.772Z,16.21
2019-05-16T10:17:18.772Z,16.20
2019-05-16T10:18:18.744Z,16.05
2019-05-16T10:19:18.737Z,16.63
2019-05-16T10:20:18.718Z,16.96
2019-05-16T10:21:20.649Z,17.43
2019-05-16T10:22:18.717Z,17.93
2019-05-16T10:23:18.690Z,18.55
2019-05-16T10:24:18.682Z,18.47
2019-05-16T10:25:19.599Z,18.37
2019-05-16T10:26:19.535Z,18.27
2019-05-16T10:27:18.647Z,17.97
2019-05-16T10:28:20.071Z,17.46
2019-05-16T10:29:18.774Z,17.21
2019-05-16T10:30:18.620Z,17.72
2019-05-16T10:31:18.666Z,18.21
2019-05-16T10:32:18.588Z,18.94
2019-05-16T10:33:19.203Z,18.50
2019-05-16T10:34:18.569Z,18.54
2019-05-16T10:35:18.563Z,18.82
2019-05-16T10:36:21.627Z,17.30
2019-05-16T10:37:18.545Z,16.79
2019-05-16T10:38:18.545Z,17.15
2019-05-16T10:39:18.517Z,17.74
2019-05-16T10:40:18.571Z,17.81
2019-05-16T10:41:18.505Z,18.03
2019-05-16T10:42:28.308Z,17.74
2019-05-16T10:43:19.487Z,17.93
2019-05-16T10:44:18.459Z,18.17
2019-05-16T10:45:18.449Z,17.72
2019-05-16T10:46:18.441Z,17.31
2019-05-16T10:47:18.435Z,17.37
2019-05-16T10:48:18.439Z,17.75
2019-05-16T10:49:33.233Z,18.29
2019-05-16T10:50:19.409Z,18.65
2019-05-16T10:51:18.386Z,18.91
2019-05-16T10:52:18.446Z,18.36
2019-05-16T10:53:50.264Z,18.42
2019-05-16T10:54:19.502Z,18.27
2019-05-16T10:55:18.389Z,18.88
2019-05-16T10:56:18.343Z,19.29
2019-05-16T10:57:18.408Z,19.88
2019-05-16T10:58:34.803Z,19.98
2019-05-16T10:59:54.519Z,19.95
2019-05-16T11:00:42.453Z,19.96
2019-05-16T11:01:27.520Z,19.39
2019-05-16T11:02:19.339Z,19.14
2019-05-16T11:03:18.274Z,18.80
2019-05-16T11:04:28.479Z,18.58
2019-05-16T11:05:29.901Z,18.54
2019-05-16T11:06:25.527Z,17.84
2019-05-16T11:07:19.218Z,17.97
2019-05-16T11:08:18.225Z,18.14
2019-05-16T11:09:18.247Z,17.82
2019-05-16T11:10:18.188Z,17.04
2019-05-16T11:11:20.009Z,16.96
2019-05-16T11:12:20.536Z,16.89
2019-05-16T11:13:20.316Z,16.81
2019-05-16T11:14:18.150Z,17.06
2019-05-16T11:15:18.147Z,17.49
2019-05-16T11:16:18.116Z,17.23
2019-05-16T11:17:19.032Z,17.03
2019-05-16T11:18:18.112Z,16.73
2019-05-16T11:19:24.211Z,16.70
2019-05-16T11:20:20.079Z,16.81
2019-05-16T11:21:19.296Z,17.00
2019-05-16T11:22:18.056Z,16.94
2019-05-16T11:23:23.336Z,16.68
2019-05-16T11:24:19.049Z,16.35
2019-05-16T11:25:28.013Z,15.49
2019-05-16T11:26:19.011Z,15.54
2019-05-16T11:27:18.003Z,15.84
2019-05-16T11:28:18.544Z,15.94
2019-05-16T11:29:17.979Z,16.30
2019-05-16T11:30:18.395Z,15.97
2019-05-16T11:31:17.959Z,16.02
2019-05-16T11:32:17.951Z,16.00
2019-05-16T11:33:17.940Z,16.14
2019-05-16T11:34:17.943Z,16.31
2019-05-16T11:35:17.918Z,15.76
2019-05-16T11:36:17.901Z,15.59
2019-05-16T11:37:17.930Z,15.75
2019-05-16T11:38:18.002Z,15.96
2019-05-16T11:39:17.893Z,16.05
2019-05-16T11:40:18.036Z,16.25
2019-05-16T11:41:17.854Z,16.30
2019-05-16T11:42:17.841Z,16.17
2019-05-16T11:43:21.582Z,16.17
2019-05-16T11:44:17.870Z,16.39
2019-05-16T11:45:17.815Z,16.43
2019-05-16T11:46:17.796Z,16.38
2019-05-16T11:47:17.783Z,16.24
2019-05-16T11:48:17.774Z,16.08
2019-05-16T11:49:17.775Z,16.01
2019-05-16T11:50:18.027Z,16.30
2019-05-16T11:51:17.759Z,16.34
2019-05-16T11:52:18.171Z,16.28
2019-05-16T11:53:17.781Z,16.39
2019-05-16T11:54:17.728Z,16.33
2019-05-16T11:55:17.701Z,16.28
2019-05-16T11:56:17.685Z,16.12
2019-05-16T11:57:17.998Z,16.04
2019-05-16T11:58:18.181Z,16.15
2019-05-16T11:59:17.674Z,16.08
2019-05-16T12:00:18.237Z,16.21
2019-05-16T12:01:17.645Z,16.09
2019-05-16T12:02:17.687Z,16.09
2019-05-16T12:03:17.617Z,15.93
2019-05-16T12:04:17.688Z,15.83
2019-05-16T12:05:17.594Z,15.76
2019-05-16T12:06:17.583Z,15.82
2019-05-16T12:07:19.109Z,15.89
2019-05-16T12:08:17.760Z,15.84
2019-05-16T12:09:17.918Z,15.80
2019-05-16T12:10:17.533Z,15.76
2019-05-16T12:11:17.971Z,15.71
2019-05-16T12:12:20.635Z,15.84
2019-05-16T12:13:28.193Z,15.90
2019-05-16T12:14:18.506Z,16.09
2019-05-16T12:15:20.060Z,16.05
2019-05-16T12:16:18.729Z,16.23
2019-05-16T12:17:17.459Z,16.23
2019-05-16T12:18:17.548Z,16.24
2019-05-16T12:19:18.105Z,16.24
2019-05-16T12:20:17.423Z,16.27
2019-05-16T12:21:17.419Z,16.48
2019-05-16T12:22:18.273Z,16.57
2019-05-16T12:23:17.396Z,16.43
2019-05-16T12:24:31.707Z,16.53
2019-05-16T12:25:18.370Z,16.64
2019-05-16T12:26:17.810Z,16.60
2019-05-16T12:27:17.425Z,16.30
2019-05-16T12:28:17.330Z,16.34
2019-05-16T12:29:17.521Z,16.30
2019-05-16T12:30:17.791Z,16.46
2019-05-16T12:31:17.637Z,16.49
2019-05-16T12:32:17.295Z,16.48
2019-05-16T12:33:18.712Z,16.46
2019-05-16T12:34:17.285Z,16.48
2019-05-16T12:35:17.703Z,16.43
2019-05-16T12:36:17.656Z,16.20
2019-05-16T12:37:17.260Z,16.30
2019-05-16T12:38:17.435Z,16.30
2019-05-16T12:39:17.391Z,16.34
2019-05-16T12:40:17.204Z,16.34
2019-05-16T12:41:17.210Z,16.27
2019-05-16T12:42:17.186Z,16.20
2019-05-16T12:43:17.965Z,16.23
2019-05-16T12:44:17.575Z,16.09
2019-05-16T12:45:17.161Z,16.11
2019-05-16T12:46:17.147Z,16.02
2019-05-16T12:47:17.153Z,15.94
2019-05-16T12:48:20.285Z,16.01
2019-05-16T12:49:17.628Z,16.20
2019-05-16T12:50:17.814Z,16.28
2019-05-16T12:51:17.292Z,16.49
2019-05-16T12:52:17.077Z,16.64
2019-05-16T12:53:17.069Z,16.52
2019-05-16T12:54:18.196Z,16.50
2019-05-16T12:55:17.066Z,16.33
2019-05-16T12:56:17.632Z,16.20
2019-05-16T12:57:18.203Z,16.17
2019-05-16T12:58:24.878Z,15.94
2019-05-16T12:59:21.204Z,15.92
2019-05-16T13:00:19.044Z,15.94
2019-05-16T13:01:20.576Z,16.05
2019-05-16T13:02:17.033Z,16.17
2019-05-16T13:03:16.967Z,16.25
2019-05-16T13:04:18.921Z,16.23